Time;durP1;ratioP1;P1;durP2;ratioP2;P2;SDS_P1;SDS_P2;PMS_P1;PMS_P2;Temp;Humidity;BMP_temperature;BMP_pressure;BME280_temperature;BME280_humidity;BME280_pressure;Samples;Min_cycle;Max_cycle;Signal;HPM_P1;HPM_P2
2021/12/19 00:02:31;;;;;;;50.70;23.60;;;0.70;99.90;;;;;;4996982;28;20172;-77
2021/12/19 00:10:23;;;;;;;50.13;23.10;;;0.60;99.90;;;;;;5014643;28;20233;-78
2021/12/19 00:12:50;;;;;;;58.97;26.27;;;0.70;99.90;;;;;;5014363;28;20643;-78
2021/12/19 00:15:16;;;;;;;53.60;25.37;;;0.70;99.90;;;;;;4997267;28;20254;-78
2021/12/19 00:17:41;;;;;;;62.47;27.70;;;0.70;99.90;;;;;;4997143;28;20198;-77
2021/12/19 00:20:08;;;;;;;61.90;28.70;;;0.60;99.90;;;;;;5014650;28;20222;-77
2021/12/19 00:22:34;;;;;;;63.67;28.17;;;0.60;99.90;;;;;;4996471;28;20179;-77
2021/12/19 00:24:59;;;;;;;59.07;27.37;;;0.60;99.90;;;;;;5014586;28;20553;-77
2021/12/19 00:27:25;;;;;;;61.50;27.03;;;0.70;99.90;;;;;;5014174;28;20224;-78
2021/12/19 00:29:51;;;;;;;54.30;26.47;;;0.60;99.90;;;;;;5014324;28;20246;-77
2021/12/19 00:32:17;;;;;;;55.30;25.67;;;0.50;99.90;;;;;;5014082;28;20237;-78
2021/12/19 00:34:43;;;;;;;59.60;25.27;;;0.40;99.90;;;;;;5014380;28;20175;-77
2021/12/19 00:37:10;;;;;;;51.53;23.87;;;0.50;99.90;;;;;;5014635;28;20176;-78
2021/12/19 00:39:36;;;;;;;54.07;25.33;;;0.50;99.90;;;;;;4996989;28;20252;-77
2021/12/19 00:42:07;;;;;;;50.33;23.93;;;0.60;99.90;;;;;;5014874;28;20254;-77
2021/12/19 00:44:35;;;;;;;50.27;24.23;;;0.70;99.90;;;;;;4998064;28;20168;-77
2021/12/19 00:47:07;;;;;;;52.93;24.03;;;0.80;99.90;;;;;;5016174;28;20171;-79
2021/12/19 00:49:34;;;;;;;53.17;25.17;;;0.90;99.90;;;;;;5004903;28;20202;-78
2021/12/19 00:52:01;;;;;;;48.13;24.17;;;0.80;99.90;;;;;;5022970;28;20251;-78
2021/12/19 00:54:27;;;;;;;49.37;23.37;;;0.70;99.90;;;;;;4995709;28;20195;-76
2021/12/19 00:56:53;;;;;;;52.03;24.53;;;0.70;99.90;;;;;;5016600;28;20637;-76
2021/12/19 00:59:19;;;;;;;48.07;22.93;;;0.70;99.90;;;;;;5016590;28;20277;-76
2021/12/19 01:01:46;;;;;;;47.87;22.87;;;0.80;99.90;;;;;;5016644;28;20171;-76
2021/12/19 01:04:15;;;;;;;48.50;23.13;;;0.90;99.90;;;;;;4998844;28;20201;-78
2021/12/19 01:06:42;;;;;;;46.60;21.83;;;0.80;99.90;;;;;;5016522;28;20167;-77
2021/12/19 01:09:08;;;;;;;42.53;21.97;;;0.70;99.90;;;;;;5016440;28;20290;-76
2021/12/19 01:11:35;;;;;;;44.93;21.43;;;0.70;99.90;;;;;;4998892;28;20564;-76
2021/12/19 01:14:03;;;;;;;48.73;24.30;;;0.60;99.90;;;;;;5016541;28;20191;-77
2021/12/19 01:16:29;;;;;;;49.30;22.93;;;0.70;99.90;;;;;;5014439;28;20565;-77
2021/12/19 01:18:54;;;;;;;45.20;23.07;;;0.60;99.90;;;;;;5017937;28;20167;-77
2021/12/19 01:21:20;;;;;;;46.43;22.30;;;0.60;99.90;;;;;;5000251;28;20175;-77
2021/12/19 01:23:46;;;;;;;43.07;22.23;;;0.50;99.90;;;;;;4999748;28;20183;-77
2021/12/19 01:26:12;;;;;;;44.93;23.00;;;0.50;99.90;;;;;;5000216;28;20366;-76
2021/12/19 01:28:39;;;;;;;50.03;23.17;;;0.60;99.90;;;;;;5000629;28;20696;-77
2021/12/19 01:31:05;;;;;;;47.70;21.97;;;0.70;99.90;;;;;;5018293;28;20302;-76
2021/12/19 01:33:30;;;;;;;47.53;22.80;;;0.70;99.90;;;;;;5000278;28;20214;-77
2021/12/19 01:35:56;;;;;;;42.60;20.93;;;0.60;99.90;;;;;;4998323;28;20168;-77
2021/12/19 01:38:22;;;;;;;44.43;21.73;;;0.70;99.90;;;;;;5015508;28;20181;-78
2021/12/19 01:40:48;;;;;;;44.57;21.80;;;0.60;99.90;;;;;;5015471;28;20261;-77
2021/12/19 01:43:17;;;;;;;45.27;21.47;;;0.60;99.90;;;;;;4998219;28;20182;-77
2021/12/19 01:45:43;;;;;;;48.67;23.57;;;0.50;99.90;;;;;;5015654;28;20636;-76
2021/12/19 01:48:11;;;;;;;49.70;23.67;;;0.50;99.90;;;;;;5015824;28;20178;-77
2021/12/19 01:50:38;;;;;;;46.10;22.37;;;0.50;99.90;;;;;;5017240;28;20758;-77
2021/12/19 01:53:07;;;;;;;45.73;22.87;;;0.50;99.90;;;;;;5016805;28;20227;-76
2021/12/19 01:55:33;;;;;;;46.27;22.03;;;0.50;99.90;;;;;;5015549;28;20170;-76
2021/12/19 01:58:00;;;;;;;45.27;22.47;;;0.40;99.90;;;;;;4997937;28;20175;-76
2021/12/19 02:00:29;;;;;;;45.60;21.93;;;0.50;99.90;;;;;;5015494;28;20207;-76
2021/12/19 02:02:55;;;;;;;51.53;22.23;;;0.50;99.90;;;;;;4997925;28;20179;-76
2021/12/19 02:05:23;;;;;;;42.33;20.73;;;0.40;99.90;;;;;;5015357;28;20183;-76
2021/12/19 02:07:50;;;;;;;43.23;20.67;;;0.50;99.90;;;;;;5015159;28;20178;-76
2021/12/19 02:10:24;;;;;;;44.33;21.17;;;0.40;99.90;;;;;;5015253;28;20235;-76
2021/12/19 02:12:51;;;;;;;40.90;19.37;;;0.40;99.90;;;;;;5015132;28;20209;-76
2021/12/19 02:15:20;;;;;;;43.57;20.93;;;0.40;99.90;;;;;;5009766;28;20249;-76
2021/12/19 02:17:48;;;;;;;41.13;20.93;;;0.50;99.90;;;;;;5015162;28;20171;-76
2021/12/19 02:20:15;;;;;;;40.97;21.83;;;0.40;99.90;;;;;;5014984;28;20665;-76
2021/12/19 02:22:41;;;;;;;40.30;19.80;;;0.40;99.90;;;;;;4997917;28;20273;-76
2021/12/19 02:25:07;;;;;;;43.63;21.80;;;0.40;99.90;;;;;;5014741;28;20210;-76
2021/12/19 02:27:33;;;;;;;41.83;20.60;;;0.40;99.90;;;;;;5015082;28;20175;-76
2021/12/19 02:29:59;;;;;;;43.57;21.57;;;0.40;99.90;;;;;;5043161;23;20206;-72
2021/12/19 02:32:28;;;;;;;42.43;20.67;;;0.40;99.90;;;;;;4978260;28;20266;-74
2021/12/19 02:34:56;;;;;;;45.70;22.10;;;0.40;99.90;;;;;;4995057;28;20172;-75
2021/12/19 02:40:23;;;;;;;42.33;21.13;;;0.40;99.90;;;;;;4995136;28;20205;-75
2021/12/19 02:48:13;;;;;;;46.10;20.13;;;0.50;99.90;;;;;;4994975;28;20242;-74
2021/12/19 02:50:48;;;;;;;43.50;21.80;;;0.50;99.90;;;;;;4994821;28;20202;-74
2021/12/19 02:53:17;;;;;;;44.47;21.83;;;0.50;99.90;;;;;;4977343;28;20218;-73
2021/12/19 02:55:43;;;;;;;43.53;22.03;;;0.50;99.90;;;;;;4994507;28;20218;-74
2021/12/19 02:58:10;;;;;;;37.73;19.97;;;0.50;99.90;;;;;;4994824;28;20164;-73
2021/12/19 03:00:35;;;;;;;42.97;20.63;;;0.40;99.90;;;;;;4994570;28;20202;-73
2021/12/19 03:03:01;;;;;;;39.07;20.67;;;0.40;99.90;;;;;;4994532;28;20179;-73
2021/12/19 03:05:29;;;;;;;42.20;20.20;;;0.40;99.90;;;;;;4994591;28;20210;-73
2021/12/19 03:07:56;;;;;;;42.57;20.50;;;0.40;99.90;;;;;;4977034;28;20210;-73
2021/12/19 03:13:28;;;;;;;44.13;20.67;;;0.40;99.90;;;;;;4994576;28;20218;-73
2021/12/19 03:18:40;;;;;;;43.07;20.70;;;0.40;99.90;;;;;;4987076;28;20251;-74
2021/12/19 03:21:10;;;;;;;46.10;22.03;;;0.40;99.90;;;;;;4992275;28;20286;-74
2021/12/19 03:23:36;;;;;;;43.40;21.97;;;0.50;99.90;;;;;;4992175;28;20280;-73
2021/12/19 03:26:02;;;;;;;44.90;21.53;;;0.50;99.90;;;;;;4976458;28;20713;-73
2021/12/19 03:28:28;;;;;;;42.40;21.33;;;0.60;99.90;;;;;;4994183;28;20199;-73
2021/12/19 03:30:53;;;;;;;43.63;21.77;;;0.70;99.90;;;;;;4993959;28;20215;-73
2021/12/19 03:33:20;;;;;;;46.13;23.73;;;0.70;99.90;;;;;;4993143;28;20268;-74
2021/12/19 03:35:46;;;;;;;42.37;21.90;;;0.90;99.90;;;;;;4993703;28;20160;-72
2021/12/19 03:38:14;;;;;;;43.30;21.47;;;0.90;99.90;;;;;;4976505;28;20210;-73
2021/12/19 03:40:44;;;;;;;45.90;22.60;;;0.90;99.90;;;;;;4993725;28;20769;-73
2021/12/19 03:43:15;;;;;;;46.33;23.63;;;0.80;99.90;;;;;;4976576;28;20183;-73
2021/12/19 03:45:43;;;;;;;49.03;23.47;;;0.70;99.90;;;;;;4993815;28;20286;-72
2021/12/19 03:48:12;;;;;;;51.37;23.97;;;0.50;99.90;;;;;;4993969;28;20663;-73
2021/12/19 03:50:43;;;;;;;48.83;24.20;;;0.50;99.90;;;;;;4993770;28;20273;-72
2021/12/19 03:53:09;;;;;;;51.10;24.17;;;1.00;99.90;;;;;;4994052;28;20201;-73
2021/12/19 03:55:35;;;;;;;49.17;24.23;;;0.40;99.90;;;;;;4993679;28;20176;-73
2021/12/19 03:58:02;;;;;;;42.80;22.43;;;0.50;99.90;;;;;;4976321;28;20179;-73
2021/12/19 04:00:29;;;;;;;42.70;21.73;;;0.70;99.90;;;;;;4993735;28;20196;-74
2021/12/19 04:03:03;;;;;;;42.67;21.50;;;0.70;99.90;;;;;;4993814;28;20168;-72
2021/12/19 04:05:30;;;;;;;46.00;23.07;;;0.70;99.90;;;;;;4978785;28;20171;-73
2021/12/19 04:07:56;;;;;;;48.83;23.43;;;0.80;99.90;;;;;;4993650;28;20648;-73
2021/12/19 04:10:23;;;;;;;45.83;22.23;;;0.80;99.90;;;;;;4993499;28;20326;-73
2021/12/19 04:12:49;;;;;;;51.97;23.00;;;0.80;99.90;;;;;;4993562;28;20199;-74
2021/12/19 04:15:15;;;;;;;51.70;24.17;;;0.70;99.90;;;;;;4993763;28;20579;-73
2021/12/19 04:17:41;;;;;;;48.50;23.27;;;0.80;99.90;;;;;;4993660;28;20250;-73
2021/12/19 04:20:07;;;;;;;48.13;22.67;;;0.80;99.90;;;;;;4976114;28;20685;-75
2021/12/19 04:22:33;;;;;;;45.53;21.40;;;0.80;99.90;;;;;;4993562;28;20532;-74
2021/12/19 04:24:59;;;;;;;46.10;22.63;;;0.70;99.90;;;;;;4993328;28;20172;-74
2021/12/19 04:27:25;;;;;;;40.73;20.67;;;0.80;99.90;;;;;;4993825;28;20697;-74
2021/12/19 04:29:53;;;;;;;41.07;21.37;;;0.80;99.90;;;;;;4993887;28;20646;-74
2021/12/19 04:32:23;;;;;;;42.27;20.93;;;1.20;99.90;;;;;;4997437;28;20168;-73
2021/12/19 04:34:49;;;;;;;39.60;19.83;;;0.70;99.90;;;;;;4997505;28;20242;-75
2021/12/19 04:40:49;;;;;;;43.80;21.37;;;0.70;99.90;;;;;;4997358;28;20171;-74
2021/12/19 04:53:34;;;;;;;42.87;21.97;;;0.60;99.90;;;;;;4997651;28;20234;-74
2021/12/19 04:59:37;;;;;;;40.87;20.30;;;0.50;99.90;;;;;;4997335;28;20178;-73
2021/12/19 05:14:07;;;;;;;47.13;21.27;;;0.40;99.90;;;;;;4993815;28;20209;-75
2021/12/19 05:14:46;;;;;;;38.20;19.47;;;0.40;99.90;;;;;;4994526;28;20223;-74
2021/12/19 05:17:18;;;;;;;46.83;21.77;;;0.40;99.90;;;;;;4994054;28;20199;-75
2021/12/19 05:19:54;;;;;;;42.40;21.23;;;0.30;99.90;;;;;;4994049;28;20168;-74
2021/12/19 05:22:22;;;;;;;40.80;19.60;;;0.20;99.90;;;;;;4993117;28;20175;-75
2021/12/19 05:25:00;;;;;;;43.20;21.10;;;0.30;99.90;;;;;;4976433;28;20599;-74
2021/12/19 05:27:26;;;;;;;44.60;20.70;;;0.30;99.90;;;;;;4992883;28;20186;-74
2021/12/19 05:29:52;;;;;;;39.90;19.67;;;0.30;99.90;;;;;;4994790;28;20180;-75
2021/12/19 05:32:18;;;;;;;46.57;20.77;;;0.30;99.90;;;;;;4995149;28;20206;-74
2021/12/19 05:34:44;;;;;;;44.23;20.67;;;0.30;99.90;;;;;;4994375;28;20683;-74
2021/12/19 05:45:22;;;;;;;46.10;21.37;;;0.60;99.90;;;;;;4994387;28;20206;-75
2021/12/19 05:47:50;;;;;;;42.13;20.60;;;0.60;99.90;;;;;;4993913;28;20191;-74
2021/12/19 05:50:18;;;;;;;43.37;21.13;;;0.60;99.90;;;;;;4992647;28;20203;-75
2021/12/19 05:52:45;;;;;;;40.83;20.13;;;0.60;99.90;;;;;;4992888;28;20207;-75
2021/12/19 05:55:11;;;;;;;42.07;21.30;;;0.60;99.90;;;;;;4975585;28;20524;-75
2021/12/19 05:57:37;;;;;;;41.70;20.87;;;0.70;99.90;;;;;;4993185;28;20215;-75
2021/12/19 06:00:07;;;;;;;38.30;20.47;;;0.60;99.90;;;;;;4993049;28;20658;-74
2021/12/19 06:02:32;;;;;;;37.10;19.40;;;0.70;99.90;;;;;;4975726;28;20203;-75
2021/12/19 06:04:58;;;;;;;40.53;20.20;;;0.70;99.90;;;;;;4977042;28;20203;-74
2021/12/19 06:07:24;;;;;;;38.33;19.67;;;0.60;99.90;;;;;;4977255;28;20194;-74
2021/12/19 06:09:49;;;;;;;44.60;21.00;;;0.50;99.90;;;;;;4995375;28;20182;-74
2021/12/19 06:12:15;;;;;;;40.37;20.23;;;0.30;99.90;;;;;;4998023;28;20215;-73
2021/12/19 06:14:40;;;;;;;42.47;21.13;;;0.30;99.90;;;;;;4995434;28;20203;-74
2021/12/19 06:17:06;;;;;;;41.13;20.33;;;0.30;99.90;;;;;;4995554;28;20174;-74
2021/12/19 06:19:36;;;;;;;45.27;21.17;;;0.30;99.90;;;;;;4977944;28;20310;-74
2021/12/19 06:22:03;;;;;;;43.70;21.17;;;0.30;99.90;;;;;;4995433;28;20592;-74
2021/12/19 06:24:30;;;;;;;45.13;22.00;;;0.30;99.90;;;;;;4977901;28;20203;-74
2021/12/19 06:26:56;;;;;;;42.80;21.23;;;0.30;99.90;;;;;;4995162;28;20557;-74
2021/12/19 06:29:22;;;;;;;45.87;21.90;;;0.50;99.90;;;;;;4995363;28;20266;-75
2021/12/19 06:31:48;;;;;;;43.87;21.80;;;0.50;99.90;;;;;;4995134;28;20203;-74
2021/12/19 06:34:13;;;;;;;41.90;21.53;;;0.50;99.90;;;;;;4977732;28;20199;-74
2021/12/19 06:36:40;;;;;;;43.70;20.57;;;0.40;99.90;;;;;;4995201;28;20254;-74
2021/12/19 06:39:06;;;;;;;41.70;20.80;;;0.30;99.90;;;;;;4995424;28;20627;-74
2021/12/19 06:41:35;;;;;;;47.53;22.97;;;0.30;99.90;;;;;;4994990;28;20196;-74
2021/12/19 06:44:01;;;;;;;44.37;20.80;;;0.40;99.90;;;;;;4994960;28;20355;-75
2021/12/19 06:46:26;;;;;;;44.70;21.07;;;0.50;99.90;;;;;;4992793;28;20254;-75
2021/12/19 06:48:52;;;;;;;39.70;20.77;;;0.50;99.90;;;;;;4992200;28;20184;-74
2021/12/19 06:51:17;;;;;;;39.70;20.47;;;0.50;99.90;;;;;;4974520;28;20195;-74
2021/12/19 06:53:43;;;;;;;40.07;19.57;;;0.50;99.90;;;;;;4991238;28;20750;-73
2021/12/19 06:56:09;;;;;;;47.30;21.80;;;0.40;99.90;;;;;;4974626;28;20643;-75
2021/12/19 06:58:34;;;;;;;48.63;21.30;;;0.30;99.90;;;;;;4992077;28;20178;-74
2021/12/19 07:01:00;;;;;;;43.37;21.73;;;0.30;99.90;;;;;;4974257;28;20298;-75
2021/12/19 07:03:26;;;;;;;41.50;20.90;;;0.20;99.90;;;;;;4991918;28;20206;-74
2021/12/19 07:05:51;;;;;;;39.23;20.70;;;0.30;99.90;;;;;;4979259;28;20264;-75
2021/12/19 07:08:17;;;;;;;45.40;21.50;;;0.30;99.90;;;;;;4993061;28;20182;-75
2021/12/19 07:10:43;;;;;;;44.17;22.30;;;0.40;99.90;;;;;;4983089;28;20683;-75
2021/12/19 07:13:09;;;;;;;45.63;21.53;;;0.50;99.90;;;;;;4989610;28;20577;-75
2021/12/19 07:15:34;;;;;;;46.97;22.23;;;0.50;99.90;;;;;;4991765;28;20177;-75
2021/12/19 07:18:03;;;;;;;45.47;22.43;;;0.40;99.90;;;;;;4991592;28;20176;-74
2021/12/19 07:20:30;;;;;;;43.23;21.67;;;0.30;99.90;;;;;;4992601;28;20184;-74
2021/12/19 07:22:57;;;;;;;46.17;21.97;;;0.20;99.90;;;;;;4992916;28;20179;-74
2021/12/19 07:25:23;;;;;;;49.43;23.67;;;0.20;99.90;;;;;;4991530;28;20888;-74
2021/12/19 07:27:48;;;;;;;47.77;22.00;;;0.20;99.90;;;;;;4985137;28;20186;-73
2021/12/19 07:30:14;;;;;;;45.60;22.37;;;0.10;99.90;;;;;;4978655;28;20624;-74
2021/12/19 07:32:40;;;;;;;44.40;21.33;;;0.10;99.90;;;;;;4975314;28;20210;-73
2021/12/19 07:35:08;;;;;;;43.07;21.50;;;0.20;99.90;;;;;;4992836;28;20548;-74
2021/12/19 07:37:36;;;;;;;46.07;21.93;;;0.30;99.90;;;;;;4992072;28;20347;-74
2021/12/19 07:40:18;;;;;;;44.87;22.27;;;0.30;99.90;;;;;;4992591;28;20674;-74
2021/12/19 07:42:44;;;;;;;47.10;22.17;;;0.30;99.90;;;;;;4991843;28;20203;-75
2021/12/19 07:45:11;;;;;;;46.73;21.80;;;0.40;99.90;;;;;;4991937;28;20176;-74
2021/12/19 07:47:38;;;;;;;41.40;20.93;;;0.40;99.90;;;;;;4974482;28;20179;-73
2021/12/19 07:50:08;;;;;;;47.43;22.13;;;0.40;99.90;;;;;;4991822;28;20198;-75
2021/12/19 07:52:34;;;;;;;41.10;20.60;;;0.50;99.90;;;;;;4991836;28;20174;-74
2021/12/19 07:55:00;;;;;;;43.83;21.57;;;0.50;99.90;;;;;;4991985;28;20184;-74
2021/12/19 07:57:26;;;;;;;43.17;21.50;;;0.50;99.90;;;;;;4974120;28;20179;-74
2021/12/19 07:59:51;;;;;;;46.23;22.47;;;0.60;99.90;;;;;;4992013;28;20227;-73
2021/12/19 08:02:17;;;;;;;41.10;20.67;;;0.50;99.90;;;;;;5006576;28;20167;-74
2021/12/19 08:04:43;;;;;;;40.40;20.90;;;0.50;99.90;;;;;;4977492;28;20203;-73
2021/12/19 08:07:11;;;;;;;41.57;21.63;;;0.60;99.90;;;;;;4993718;28;20179;-73
2021/12/19 08:09:57;;;;;;;43.87;21.20;;;0.60;99.90;;;;;;4976261;28;20697;-73
2021/12/19 08:12:23;;;;;;;43.37;20.27;;;0.60;99.90;;;;;;4976222;28;20606;-73
2021/12/19 08:14:49;;;;;;;44.63;21.13;;;0.50;99.90;;;;;;4976055;28;20203;-73
2021/12/19 08:17:14;;;;;;;43.83;22.03;;;0.40;99.90;;;;;;4993677;28;20634;-73
2021/12/19 08:19:40;;;;;;;44.20;21.80;;;0.40;99.90;;;;;;4993762;28;20605;-73
2021/12/19 08:22:06;;;;;;;44.27;21.53;;;0.20;99.90;;;;;;4993691;28;20544;-73
2021/12/19 08:24:31;;;;;;;47.03;21.17;;;0.20;99.90;;;;;;4993525;28;20532;-73
2021/12/19 08:26:57;;;;;;;39.73;20.43;;;0.10;99.90;;;;;;4975962;28;20184;-74
2021/12/19 08:29:23;;;;;;;47.77;22.43;;;0.10;99.90;;;;;;4983489;28;20191;-73
2021/12/19 08:31:48;;;;;;;47.00;21.13;;;0.10;99.90;;;;;;5031317;22;20234;-74
2021/12/19 08:34:14;;;;;;;44.57;21.83;;;0.10;99.90;;;;;;5024593;28;20214;-73
2021/12/19 08:36:40;;;;;;;45.07;22.47;;;0.10;99.90;;;;;;5018196;28;20242;-73
2021/12/19 08:39:07;;;;;;;49.33;22.33;;;0.10;99.90;;;;;;5012972;28;20603;-73
2021/12/19 08:41:33;;;;;;;42.47;21.00;;;0.10;99.90;;;;;;4985555;28;20222;-74
2021/12/19 08:43:59;;;;;;;48.20;23.17;;;0.10;99.90;;;;;;4992244;28;20223;-72
2021/12/19 08:46:25;;;;;;;49.57;22.80;;;0.20;99.90;;;;;;4992127;28;20175;-73
2021/12/19 08:48:50;;;;;;;46.37;22.23;;;0.30;99.90;;;;;;4993413;28;20233;-73
2021/12/19 08:51:16;;;;;;;46.70;22.77;;;0.30;99.90;;;;;;4974086;28;20258;-75
2021/12/19 08:53:42;;;;;;;41.73;20.80;;;0.40;99.90;;;;;;4975883;28;20666;-73
2021/12/19 08:56:07;;;;;;;42.00;21.07;;;0.40;99.90;;;;;;4993239;28;20199;-74
2021/12/19 08:58:33;;;;;;;44.80;21.33;;;0.40;99.90;;;;;;4992691;28;20176;-74
2021/12/19 09:01:01;;;;;;;43.90;21.23;;;0.30;99.90;;;;;;4992128;28;20577;-74
2021/12/19 09:03:29;;;;;;;47.57;22.73;;;0.20;99.90;;;;;;4974582;28;20198;-74
2021/12/19 09:05:55;;;;;;;48.27;22.00;;;0.30;99.90;;;;;;4993258;28;20657;-74
2021/12/19 09:08:21;;;;;;;47.10;22.03;;;0.30;99.90;;;;;;4975968;28;20183;-74
2021/12/19 09:10:46;;;;;;;40.13;20.30;;;0.30;99.90;;;;;;4992960;28;20191;-74
2021/12/19 09:13:12;;;;;;;43.87;21.07;;;0.30;99.90;;;;;;4976481;28;20183;-74
2021/12/19 09:15:38;;;;;;;42.97;21.40;;;0.40;99.90;;;;;;4993524;28;20187;-74
2021/12/19 09:18:03;;;;;;;49.60;21.87;;;0.40;99.90;;;;;;4994929;28;20183;-73
2021/12/19 09:20:29;;;;;;;40.27;20.83;;;0.40;99.90;;;;;;4978313;28;20180;-74
2021/12/19 09:22:55;;;;;;;46.77;22.37;;;0.50;99.90;;;;;;4994668;28;20211;-76
2021/12/19 09:25:20;;;;;;;47.03;21.97;;;0.50;99.90;;;;;;4994341;28;20189;-75
2021/12/19 09:27:47;;;;;;;45.33;22.37;;;0.40;99.90;;;;;;4992662;28;20178;-75
2021/12/19 09:30:14;;;;;;;45.70;21.53;;;0.50;99.90;;;;;;4977597;28;20208;-76
2021/12/19 09:32:40;;;;;;;45.27;22.40;;;0.50;99.90;;;;;;4993492;28;20235;-76
2021/12/19 09:35:07;;;;;;;43.00;22.33;;;0.50;99.90;;;;;;4993541;28;20303;-75
2021/12/19 09:37:35;;;;;;;40.80;21.20;;;0.60;99.90;;;;;;4993559;28;20190;-77
2021/12/19 09:40:04;;;;;;;42.93;21.50;;;0.70;99.90;;;;;;4976731;28;20179;-75
2021/12/19 09:42:34;;;;;;;40.67;20.80;;;0.60;99.90;;;;;;4977394;28;20196;-76
2021/12/19 09:45:01;;;;;;;41.77;20.07;;;0.60;99.90;;;;;;4993287;28;20194;-76
2021/12/19 09:47:28;;;;;;;45.17;21.47;;;0.40;99.90;;;;;;4993404;28;20176;-74
2021/12/19 09:49:57;;;;;;;114.30;39.17;;;0.30;99.90;;;;;;4993529;28;20207;-76
2021/12/19 09:52:24;;;;;;;79.90;29.37;;;0.30;99.90;;;;;;4993408;28;20228;-75
2021/12/19 09:54:49;;;;;;;52.90;24.17;;;0.30;99.90;;;;;;4994880;28;20620;-75
2021/12/19 09:57:15;;;;;;;45.73;22.57;;;0.30;99.90;;;;;;4994412;28;20184;-75
2021/12/19 09:59:43;;;;;;;42.60;21.33;;;0.30;99.90;;;;;;4993389;28;20258;-75
2021/12/19 10:02:09;;;;;;;45.27;22.07;;;0.40;99.90;;;;;;4976561;28;20303;-75
2021/12/19 10:04:40;;;;;;;37.43;19.63;;;0.50;99.90;;;;;;4993121;28;20204;-75
2021/12/19 10:07:07;;;;;;;39.23;20.27;;;0.60;99.90;;;;;;4994266;28;20205;-75
2021/12/19 10:09:36;;;;;;;42.47;20.83;;;0.60;99.90;;;;;;4994594;28;20598;-75
2021/12/19 10:12:23;;;;;;;44.23;20.20;;;0.60;99.90;;;;;;4987333;28;20287;-74
2021/12/19 10:14:49;;;;;;;44.10;21.20;;;0.60;99.90;;;;;;4986581;28;20180;-75
2021/12/19 10:17:18;;;;;;;40.67;20.57;;;0.60;99.90;;;;;;4988889;28;20207;-75
2021/12/19 10:19:47;;;;;;;39.17;20.00;;;0.70;99.90;;;;;;4988163;28;20250;-75
2021/12/19 10:22:29;;;;;;;39.27;20.20;;;0.70;99.90;;;;;;4989714;28;20207;-76
2021/12/19 10:25:18;;;;;;;44.03;21.50;;;0.80;99.90;;;;;;4968545;28;20684;-75
2021/12/19 10:27:48;;;;;;;44.93;21.90;;;0.70;99.90;;;;;;4963174;28;20202;-75
2021/12/19 10:30:16;;;;;;;46.80;21.47;;;0.60;99.90;;;;;;4982055;28;20634;-75
2021/12/19 10:32:52;;;;;;;44.87;21.07;;;0.50;99.90;;;;;;4981614;28;20216;-75
2021/12/19 10:35:22;;;;;;;37.30;19.80;;;0.60;99.90;;;;;;4973925;28;20179;-74
2021/12/19 10:37:48;;;;;;;46.57;21.60;;;0.70;99.90;;;;;;4987587;28;20198;-76
2021/12/19 10:43:21;;;;;;;43.47;21.10;;;0.60;99.90;;;;;;5583231;23;20695;-75
2021/12/19 10:45:53;;;;;;;41.83;19.97;;;0.50;99.90;;;;;;4981714;28;20192;-74
2021/12/19 10:48:32;;;;;;;48.03;20.70;;;0.50;99.90;;;;;;4982291;28;20743;-76
2021/12/19 11:08:08;;;;;;;39.00;22.27;;;0.50;99.90;;;;;;5084264;27;20543;-76
2021/12/19 11:10:35;;;;;;;42.97;21.27;;;0.70;99.90;;;;;;5083044;28;20196;-74
2021/12/19 11:13:21;;;;;;;37.43;20.50;;;0.80;99.90;;;;;;5064481;28;20230;-75
2021/12/19 11:15:49;;;;;;;42.83;21.27;;;0.80;99.90;;;;;;5058713;28;20191;-75
2021/12/19 11:18:15;;;;;;;39.10;20.67;;;0.80;99.90;;;;;;5066371;28;20181;-75
2021/12/19 11:20:41;;;;;;;43.70;21.80;;;0.80;99.90;;;;;;5067063;28;20204;-74
2021/12/19 11:23:06;;;;;;;42.20;21.17;;;0.70;99.90;;;;;;5068573;28;20231;-74
2021/12/19 11:25:33;;;;;;;40.17;20.73;;;0.80;99.90;;;;;;5069171;28;20207;-75
2021/12/19 11:27:59;;;;;;;40.73;20.33;;;0.70;99.90;;;;;;5069041;28;20173;-74
2021/12/19 11:30:25;;;;;;;43.40;21.40;;;0.60;99.90;;;;;;5069558;28;20224;-74
2021/12/19 11:33:16;;;;;;;41.87;21.70;;;0.50;99.90;;;;;;5069503;28;20661;-74
2021/12/19 11:35:46;;;;;;;43.67;21.80;;;0.50;99.90;;;;;;5067440;28;20173;-74
2021/12/19 11:38:13;;;;;;;42.70;20.63;;;0.60;99.90;;;;;;5068752;28;20743;-74
2021/12/19 11:40:40;;;;;;;44.17;23.20;;;0.80;99.90;;;;;;5067463;28;20587;-76
2021/12/19 11:43:10;;;;;;;46.03;22.37;;;0.80;99.90;;;;;;5068449;28;20196;-78
2021/12/19 11:45:43;;;;;;;39.13;19.33;;;0.80;99.90;;;;;;5067158;28;20193;-78
2021/12/19 11:48:27;;;;;;;40.53;20.03;;;0.90;99.90;;;;;;5068336;28;20544;-75
2021/12/19 11:50:55;;;;;;;45.60;21.40;;;1.00;99.90;;;;;;5069949;28;20205;-77
2021/12/19 11:53:35;;;;;;;40.37;21.07;;;0.90;99.90;;;;;;5068237;28;20173;-76
2021/12/19 11:56:08;;;;;;;40.63;20.07;;;0.90;99.90;;;;;;5069680;28;20173;-77
2021/12/19 11:58:46;;;;;;;42.23;21.57;;;0.90;99.90;;;;;;5068194;28;20256;-76
2021/12/19 12:01:13;;;;;;;46.30;21.10;;;0.80;99.90;;;;;;5069280;28;20197;-76
2021/12/19 12:04:06;;;;;;;41.27;20.60;;;0.80;99.90;;;;;;5068298;28;20174;-77
2021/12/19 12:07:02;;;;;;;43.47;21.37;;;0.80;99.90;;;;;;5077824;28;20648;-77
2021/12/19 12:09:39;;;;;;;40.67;22.67;;;0.90;99.90;;;;;;5065583;28;20208;-77
2021/12/19 12:12:12;;;;;;;42.13;21.13;;;0.90;99.90;;;;;;5076504;28;20169;-77
2021/12/19 12:14:42;;;;;;;43.37;21.40;;;0.90;99.90;;;;;;5077227;28;20171;-77
2021/12/19 12:17:19;;;;;;;46.53;21.47;;;0.90;99.90;;;;;;5076540;28;20247;-76
2021/12/19 12:19:52;;;;;;;39.40;20.60;;;1.30;99.90;;;;;;5076316;28;20211;-77
2021/12/19 12:25:05;;;;;;;40.10;19.97;;;1.00;99.90;;;;;;5076408;28;20180;-78
2021/12/19 12:27:40;;;;;;;45.10;22.20;;;0.90;99.90;;;;;;5076115;28;20224;-77
2021/12/19 12:30:09;;;;;;;44.87;22.10;;;1.10;99.90;;;;;;5077330;28;20227;-76
2021/12/19 12:32:34;;;;;;;38.37;20.70;;;1.10;99.90;;;;;;5074005;28;20200;-77
2021/12/19 12:35:00;;;;;;;38.93;19.80;;;1.20;99.90;;;;;;5075516;28;20205;-76
2021/12/19 12:37:27;;;;;;;45.20;21.63;;;1.20;99.90;;;;;;5074082;28;20200;-76
2021/12/19 12:40:20;;;;;;;39.97;21.00;;;1.20;99.90;;;;;;5073929;28;20197;-76
2021/12/19 12:43:14;;;;;;;39.50;21.13;;;1.20;99.90;;;;;;5075297;28;20185;-76
2021/12/19 12:45:53;;;;;;;40.60;20.10;;;1.50;99.90;;;;;;5075442;28;20602;-76
2021/12/19 12:48:41;;;;;;;39.70;19.77;;;1.50;99.90;;;;;;5075020;28;20173;-75
2021/12/19 12:51:10;;;;;;;46.80;23.17;;;1.50;99.90;;;;;;5074995;28;20193;-76
2021/12/19 12:53:50;;;;;;;45.97;23.37;;;1.50;99.90;;;;;;5075118;28;20260;-76
2021/12/19 12:56:21;;;;;;;44.67;22.43;;;1.50;99.90;;;;;;5073719;28;20289;-76
2021/12/19 12:58:50;;;;;;;45.70;23.53;;;1.50;99.90;;;;;;5073926;28;20181;-75
2021/12/19 13:01:46;;;;;;;44.80;22.27;;;1.50;99.90;;;;;;5063099;28;20193;-76
2021/12/19 13:04:15;;;;;;;40.93;21.97;;;1.40;99.90;;;;;;5074804;28;20181;-76
2021/12/19 13:06:54;;;;;;;39.87;20.27;;;1.50;99.90;;;;;;5074851;28;20684;-76
2021/12/19 13:09:34;;;;;;;43.87;20.83;;;1.60;99.90;;;;;;5070610;28;20188;-77
2021/12/19 13:12:14;;;;;;;39.10;19.93;;;1.40;99.90;;;;;;5074635;28;20173;-76
2021/12/19 13:14:57;;;;;;;36.53;19.97;;;1.20;99.90;;;;;;5073441;28;20188;-76
2021/12/19 13:17:35;;;;;;;42.70;20.03;;;1.10;99.90;;;;;;5060921;28;20256;-76
2021/12/19 13:20:13;;;;;;;47.37;21.73;;;1.10;99.90;;;;;;5072105;28;20197;-76
2021/12/19 13:22:50;;;;;;;45.47;21.27;;;1.20;99.90;;;;;;5074495;28;20181;-76
2021/12/19 13:25:16;;;;;;;41.57;20.37;;;1.20;99.90;;;;;;5074277;28;20754;-75
2021/12/19 13:27:48;;;;;;;39.97;19.97;;;1.20;99.90;;;;;;5072797;28;20256;-76
2021/12/19 13:30:20;;;;;;;44.00;21.73;;;1.20;99.90;;;;;;5074109;28;20193;-76
2021/12/19 13:33:05;;;;;;;36.27;19.90;;;1.20;99.90;;;;;;5074193;28;20572;-75
2021/12/19 13:35:47;;;;;;;41.87;21.87;;;1.30;99.90;;;;;;5074505;28;20177;-77
2021/12/19 13:38:25;;;;;;;38.60;20.90;;;1.30;99.90;;;;;;5074067;28;20710;-77
2021/12/19 13:41:10;;;;;;;39.93;20.10;;;1.50;99.90;;;;;;5072903;28;20562;-76
2021/12/19 13:43:39;;;;;;;39.23;20.00;;;1.50;99.90;;;;;;5074069;28;20586;-76
2021/12/19 13:46:09;;;;;;;39.57;20.77;;;1.50;99.90;;;;;;5073767;28;20201;-76
2021/12/19 13:48:36;;;;;;;46.03;21.70;;;1.50;99.90;;;;;;5073899;28;20274;-76
2021/12/19 13:51:15;;;;;;;41.47;20.53;;;1.60;99.90;;;;;;5072449;28;20212;-76
2021/12/19 13:53:46;;;;;;;41.03;20.73;;;1.60;99.90;;;;;;5072454;28;20269;-77
2021/12/19 13:56:14;;;;;;;42.63;21.83;;;1.60;99.90;;;;;;5072436;28;20625;-76
2021/12/19 13:58:46;;;;;;;45.73;23.80;;;1.50;99.90;;;;;;5072510;28;20177;-76
2021/12/19 14:01:19;;;;;;;43.50;21.17;;;1.60;99.90;;;;;;5073321;28;20291;-77
2021/12/19 14:03:50;;;;;;;39.97;19.93;;;1.60;99.90;;;;;;5072315;28;20666;-75